Time,TemperatureF,DewpointF,PressureIn,WindDirection,WindDirectionDegrees,WindSpeedMPH,WindSpeedGustMPH,Humidity,HourlyPrecipIn,Conditions,Clouds,dailyrainin,SoftwareType,DateUTC
2013-01-14 00:00:00,55.4,53.7,30.09,WNW,293,0.0,0.0,94,0.12,,,0.18,Wunderground v.1.15,2013-01-14 05:00:00,
2013-01-14 00:05:00,55.2,53.5,30.09,WNW,293,0.0,0.0,94,0.06,,,0.00,Wunderground v.1.15,2013-01-14 05:05:00,
2013-01-14 00:10:00,55.5,54.1,30.09,WNW,293,0.0,0.0,95,0.04,,,0.01,Wunderground v.1.15,2013-01-14 05:10:00,
2013-01-14 00:15:00,55.7,54.3,30.09,WNW,293,0.0,0.0,95,0.04,,,0.01,Wunderground v.1.15,2013-01-14 05:15:00,
2013-01-14 00:25:00,55.5,54.1,30.09,WNW,293,0.0,0.0,95,0.04,,,0.01,Wunderground v.1.15,2013-01-14 05:25:00,
2013-01-14 00:30:00,55.5,54.1,30.09,WNW,293,0.0,0.0,95,0.00,,,0.02,Wunderground v.1.15,2013-01-14 05:30:00,
2013-01-14 00:35:00,55.6,54.2,30.09,WNW,293,0.0,0.0,95,0.00,,,0.02,Wunderground v.1.15,2013-01-14 05:35:00,
2013-01-14 00:40:00,55.7,54.3,30.10,WNW,293,0.0,0.0,95,0.00,,,0.02,Wunderground v.1.15,2013-01-14 05:40:00,
2013-01-14 00:45:00,55.5,54.1,30.10,WNW,293,0.0,0.0,95,0.00,,,0.02,Wunderground v.1.15,2013-01-14 05:45:00,
2013-01-14 00:55:00,55.4,54.0,30.10,WNW,293,0.0,0.0,95,0.00,,,0.02,Wunderground v.1.15,2013-01-14 05:55:00,
2013-01-14 01:00:00,55.5,54.1,30.10,WNW,293,0.0,0.0,95,0.00,,,0.02,Wunderground v.1.15,2013-01-14 06:00:00,
2013-01-14 01:10:00,55.5,54.1,30.10,WNW,293,0.0,0.0,95,0.00,,,0.02,Wunderground v.1.15,2013-01-14 06:10:00,
2013-01-14 01:15:00,55.5,54.1,30.10,WNW,293,0.0,0.0,95,0.00,,,0.02,Wunderground v.1.15,2013-01-14 06:15:00,
2013-01-14 01:25:00,55.4,54.0,30.10,WNW,293,0.0,0.0,95,0.00,,,0.02,Wunderground v.1.15,2013-01-14 06:25:00,
2013-01-14 01:30:00,55.3,53.9,30.11,WNW,293,0.0,0.0,95,0.00,,,0.02,Wunderground v.1.15,2013-01-14 06:30:00,
2013-01-14 01:40:00,55.2,53.8,30.09,WNW,293,0.0,0.0,95,0.00,,,0.03,Wunderground v.1.15,2013-01-14 06:40:00,
2013-01-14 01:45:00,55.2,53.8,30.09,WNW,293,0.0,0.0,95,0.00,,,0.03,Wunderground v.1.15,2013-01-14 06:45:00,
2013-01-14 01:55:00,55.3,53.9,30.09,West,269,0.0,2.0,95,0.00,,,0.03,Wunderground v.1.15,2013-01-14 06:55:00,
2013-01-14 02:00:00,55.9,54.5,30.09,ESE,107,1.0,2.0,95,0.00,,,0.03,Wunderground v.1.15,2013-01-14 07:00:00,
2013-01-14 02:10:00,56.5,55.1,30.09,ESE,109,1.0,1.0,95,0.00,,,0.04,Wunderground v.1.15,2013-01-14 07:10:00,
2013-01-14 02:15:00,56.5,55.4,30.08,ESE,109,0.0,1.0,96,0.00,,,0.04,Wunderground v.1.15,2013-01-14 07:15:00,
2013-01-14 02:20:00,56.5,55.1,30.08,ESE,109,0.0,0.0,95,0.05,,,0.05,Wunderground v.1.15,2013-01-14 07:20:00,
2013-01-14 02:25:00,56.6,55.5,30.08,ESE,109,0.0,0.0,96,0.07,,,0.06,Wunderground v.1.15,2013-01-14 07:25:00,
2013-01-14 02:30:00,56.4,55.0,30.07,ESE,109,0.0,0.0,95,0.07,,,0.06,Wunderground v.1.15,2013-01-14 07:30:00,
2013-01-14 02:40:00,56.2,54.8,30.08,ESE,109,0.0,0.0,95,0.06,,,0.07,Wunderground v.1.15,2013-01-14 07:40:00,
2013-01-14 02:45:00,56.0,54.6,30.08,NW,321,1.0,1.0,95,0.05,,,0.07,Wunderground v.1.15,2013-01-14 07:45:00,
2013-01-14 02:55:00,56.4,55.0,30.08,WNW,290,0.0,1.0,95,0.00,,,0.07,Wunderground v.1.15,2013-01-14 07:55:00,
2013-01-14 03:00:00,56.2,54.8,30.08,WNW,290,0.0,0.0,95,0.00,,,0.08,Wunderground v.1.15,2013-01-14 08:00:00,
2013-01-14 03:10:00,56.1,54.7,30.08,WNW,290,0.0,0.0,95,0.00,,,0.08,Wunderground v.1.15,2013-01-14 08:10:00,
2013-01-14 03:15:00,56.1,54.7,30.08,WNW,290,0.0,0.0,95,0.05,,,0.09,Wunderground v.1.15,2013-01-14 08:15:00,
2013-01-14 03:20:00,56.0,54.6,30.08,WNW,290,0.0,0.0,95,0.05,,,0.09,Wunderground v.1.15,2013-01-14 08:20:00,
2013-01-14 03:25:00,56.0,54.6,30.07,WNW,290,0.0,0.0,95,0.05,,,0.09,Wunderground v.1.15,2013-01-14 08:25:00,
2013-01-14 03:30:00,55.9,54.5,30.08,WNW,290,0.0,0.0,95,0.00,,,0.09,Wunderground v.1.15,2013-01-14 08:30:00,
2013-01-14 03:40:00,55.8,54.4,30.08,WNW,290,0.0,0.0,95,0.00,,,0.10,Wunderground v.1.15,2013-01-14 08:40:00,
2013-01-14 03:45:00,55.7,54.3,30.08,WNW,290,0.0,0.0,95,0.00,,,0.10,Wunderground v.1.15,2013-01-14 08:45:00,
2013-01-14 03:55:00,55.7,54.3,30.08,WNW,290,0.0,0.0,95,0.00,,,0.11,Wunderground v.1.15,2013-01-14 08:55:00,
2013-01-14 04:00:00,55.6,54.2,30.08,WNW,290,0.0,0.0,95,0.00,,,0.11,Wunderground v.1.15,2013-01-14 09:00:00,
2013-01-14 04:05:00,55.7,54.3,30.07,WNW,290,0.0,0.0,95,0.08,,,0.12,Wunderground v.1.15,2013-01-14 09:05:00,
2013-01-14 04:10:00,55.7,54.3,30.07,WNW,290,0.0,0.0,95,0.07,,,0.12,Wunderground v.1.15,2013-01-14 09:10:00,
2013-01-14 04:20:00,55.5,54.1,30.07,WNW,290,0.0,0.0,95,0.00,,,0.13,Wunderground v.1.15,2013-01-14 09:20:00,
2013-01-14 04:25:00,55.7,54.3,30.07,WNW,290,0.0,0.0,95,0.00,,,0.13,Wunderground v.1.15,2013-01-14 09:25:00,
2013-01-14 04:30:00,55.8,54.7,30.08,WNW,290,0.0,0.0,96,0.06,,,0.13,Wunderground v.1.15,2013-01-14 09:30:00,
2013-01-14 04:40:00,55.6,54.2,30.08,WNW,290,1.0,4.0,95,0.27,,,0.18,Wunderground v.1.15,2013-01-14 09:40:00,
2013-01-14 04:45:00,55.8,54.4,30.08,WNW,298,3.0,4.0,95,0.15,,,0.19,Wunderground v.1.15,2013-01-14 09:45:00,
2013-01-14 04:50:00,54.9,53.5,30.07,NNW,330,3.0,3.0,95,0.32,,,0.21,Wunderground v.1.15,2013-01-14 09:50:00,
2013-01-14 04:55:00,54.3,52.9,30.08,WNW,291,4.0,4.0,95,0.09,,,0.21,Wunderground v.1.15,2013-01-14 09:55:00,
2013-01-14 05:00:00,53.9,52.5,30.08,WNW,298,3.0,3.0,95,0.08,,,0.22,Wunderground v.1.15,2013-01-14 10:00:00,
2013-01-14 05:10:00,53.2,51.5,30.08,WSW,237,2.0,2.0,94,0.04,,,0.22,Wunderground v.1.15,2013-01-14 10:10:00,
2013-01-14 05:15:00,52.9,51.2,30.09,WNW,289,2.0,3.0,94,0.00,,,0.22,Wunderground v.1.15,2013-01-14 10:15:00,
2013-01-14 05:25:00,52.5,50.5,30.09,WNW,298,3.0,5.0,93,0.15,,,0.25,Wunderground v.1.15,2013-01-14 10:25:00,
2013-01-14 05:30:00,52.2,50.5,30.09,WNW,300,4.0,4.0,94,0.11,,,0.25,Wunderground v.1.15,2013-01-14 10:30:00,
2013-01-14 05:35:00,51.9,49.9,30.09,WNW,284,5.0,6.0,93,0.06,,,0.25,Wunderground v.1.15,2013-01-14 10:35:00,
2013-01-14 05:40:00,51.4,49.4,30.10,West,274,5.0,9.0,93,0.04,,,0.25,Wunderground v.1.15,2013-01-14 10:40:00,
2013-01-14 05:50:00,50.7,48.5,30.11,West,265,6.0,6.0,92,0.04,,,0.26,Wunderground v.1.15,2013-01-14 10:50:00,
2013-01-14 05:55:00,50.3,48.1,30.11,NNW,336,4.0,6.0,92,0.06,,,0.27,Wunderground v.1.15,2013-01-14 10:55:00,
2013-01-14 06:00:00,49.8,47.3,30.12,WNW,296,3.0,5.0,91,0.13,,,0.28,Wunderground v.1.15,2013-01-14 11:00:00,
2013-01-14 06:10:00,49.0,46.5,30.12,WNW,283,5.0,5.0,91,0.07,,,0.29,Wunderground v.1.15,2013-01-14 11:10:00,
2013-01-14 06:15:00,48.7,46.2,30.13,NW,318,5.0,5.0,91,0.05,,,0.30,Wunderground v.1.15,2013-01-14 11:15:00,
2013-01-14 06:20:00,48.6,46.4,30.12,NE,50,2.0,2.0,92,0.05,,,0.30,Wunderground v.1.15,2013-01-14 11:20:00,
2013-01-14 06:25:00,48.4,46.2,30.12,SSW,207,2.0,4.0,92,0.05,,,0.31,Wunderground v.1.15,2013-01-14 11:25:00,
2013-01-14 06:30:00,48.4,46.2,30.12,SW,231,3.0,3.0,92,0.05,,,0.31,Wunderground v.1.15,2013-01-14 11:30:00,
2013-01-14 06:40:00,48.2,46.3,30.12,WSW,248,2.0,2.0,93,0.04,,,0.31,Wunderground v.1.15,2013-01-14 11:40:00,
2013-01-14 06:45:00,48.1,46.2,30.13,WNW,298,2.0,2.0,93,0.00,,,0.31,Wunderground v.1.15,2013-01-14 11:45:00,
2013-01-14 06:55:00,47.9,46.0,30.14,NNW,342,2.0,4.0,93,0.00,,,0.31,Wunderground v.1.15,2013-01-14 11:55:00,
2013-01-14 07:05:00,47.8,45.9,30.13,WSW,244,1.0,3.0,93,0.00,,,0.31,Wunderground v.1.15,2013-01-14 12:05:00,
2013-01-14 07:10:00,47.8,45.9,30.14,SW,223,2.0,3.0,93,0.00,,,0.32,Wunderground v.1.15,2013-01-14 12:10:00,
2013-01-14 07:15:00,47.7,45.8,30.14,WNW,293,3.0,3.0,93,0.00,,,0.32,Wunderground v.1.15,2013-01-14 12:15:00,
2013-01-14 07:25:00,47.6,45.7,30.14,West,267,1.0,2.0,93,0.00,,,0.32,Wunderground v.1.15,2013-01-14 12:25:00,
2013-01-14 07:30:00,47.4,45.5,30.14,SW,236,1.0,1.0,93,0.00,,,0.33,Wunderground v.1.15,2013-01-14 12:30:00,
2013-01-14 07:35:00,47.4,45.5,30.15,West,260,1.0,1.0,93,0.00,,,0.33,Wunderground v.1.15,2013-01-14 12:35:00,
2013-01-14 07:40:00,47.4,45.5,30.15,West,261,1.0,2.0,93,0.00,,,0.33,Wunderground v.1.15,2013-01-14 12:40:00,
2013-01-14 07:45:00,47.2,45.3,30.16,West,279,2.0,3.0,93,0.00,,,0.33,Wunderground v.1.15,2013-01-14 12:45:00,
2013-01-14 07:55:00,47.0,45.1,30.17,WNW,303,4.0,4.0,93,0.00,,,0.34,Wunderground v.1.15,2013-01-14 12:55:00,
2013-01-14 08:00:00,46.9,45.0,30.17,WNW,299,3.0,3.0,93,0.00,,,0.34,Wunderground v.1.15,2013-01-14 13:00:00,
2013-01-14 08:10:00,46.6,44.7,30.17,West,271,1.0,6.0,93,0.30,,,0.38,Wunderground v.1.15,2013-01-14 13:10:00,
2013-01-14 08:15:00,46.6,44.7,30.17,WSW,243,3.0,6.0,93,0.22,,,0.39,Wunderground v.1.15,2013-01-14 13:15:00,
2013-01-14 08:25:00,46.6,44.7,30.17,NW,319,1.0,2.0,93,0.23,,,0.42,Wunderground v.1.15,2013-01-14 13:25:00,
2013-01-14 08:30:00,46.6,44.7,30.18,West,280,1.0,2.0,93,0.11,,,0.42,Wunderground v.1.15,2013-01-14 13:30:00,
2013-01-14 08:35:00,46.6,45.0,30.18,West,280,1.0,2.0,94,0.11,,,0.43,Wunderground v.1.15,2013-01-14 13:35:00,
2013-01-14 08:40:00,46.6,45.0,30.19,West,280,0.0,0.0,94,0.06,,,0.43,Wunderground v.1.15,2013-01-14 13:40:00,
2013-01-14 08:45:00,46.6,45.0,30.19,West,279,0.0,0.0,94,0.04,,,0.43,Wunderground v.1.15,2013-01-14 13:45:00,
2013-01-14 08:55:00,46.3,44.4,30.19,WNW,286,1.0,1.0,93,0.00,,,0.43,Wunderground v.1.15,2013-01-14 13:55:00,
2013-01-14 09:00:00,46.3,44.4,30.19,WNW,286,0.0,2.0,93,0.00,,,0.43,Wunderground v.1.15,2013-01-14 14:00:00,
2013-01-14 09:05:00,46.3,44.4,30.19,WNW,286,0.0,2.0,93,0.00,,,0.43,Wunderground v.1.15,2013-01-14 14:05:00,
2013-01-14 09:10:00,46.2,44.3,30.18,SW,235,1.0,1.0,93,0.00,,,0.43,Wunderground v.1.15,2013-01-14 14:10:00,
2013-01-14 09:15:00,46.5,44.6,30.18,SW,235,1.0,1.0,93,0.00,,,0.43,Wunderground v.1.15,2013-01-14 14:15:00,
2013-01-14 09:25:00,46.6,45.0,30.18,SW,236,0.0,2.0,94,0.00,,,0.43,Wunderground v.1.15,2013-01-14 14:25:00,
2013-01-14 09:30:00,46.6,44.7,30.18,SW,236,1.0,1.0,93,0.00,,,0.43,Wunderground v.1.15,2013-01-14 14:30:00,
2013-01-14 09:40:00,46.8,44.9,30.19,SW,236,0.0,0.0,93,0.00,,,0.43,Wunderground v.1.15,2013-01-14 14:40:00,
2013-01-14 09:45:00,46.9,45.0,30.20,WNW,291,1.0,4.0,93,0.00,,,0.43,Wunderground v.1.15,2013-01-14 14:45:00,
2013-01-14 09:50:00,46.8,44.6,30.20,WNW,290,2.0,2.0,92,0.00,,,0.43,Wunderground v.1.15,2013-01-14 14:50:00,
2013-01-14 10:00:00,47.0,44.8,30.19,West,263,1.0,1.0,92,0.00,,,0.43,Wunderground v.1.15,2013-01-14 15:00:00,
2013-01-14 10:10:00,47.0,44.8,30.19,WNW,292,0.0,0.0,92,0.00,,,0.43,Wunderground v.1.15,2013-01-14 15:10:00,
2013-01-14 10:15:00,47.1,44.9,30.19,West,265,0.0,3.0,92,0.00,,,0.43,Wunderground v.1.15,2013-01-14 15:15:00,
2013-01-14 10:25:00,47.3,45.1,30.20,NW,304,2.0,2.0,92,0.00,,,0.43,Wunderground v.1.15,2013-01-14 15:25:00,
2013-01-14 10:30:00,47.2,45.0,30.20,WNW,286,1.0,1.0,92,0.00,,,0.43,Wunderground v.1.15,2013-01-14 15:30:00,
2013-01-14 10:35:00,47.2,45.0,30.20,WNW,286,0.0,2.0,92,0.00,,,0.43,Wunderground v.1.15,2013-01-14 15:35:00,
2013-01-14 10:40:00,47.2,45.3,30.20,WNW,286,0.0,0.0,93,0.00,,,0.43,Wunderground v.1.15,2013-01-14 15:40:00,
2013-01-14 10:45:00,47.2,45.0,30.20,WNW,286,0.0,0.0,92,0.00,,,0.43,Wunderground v.1.15,2013-01-14 15:45:00,
2013-01-14 10:55:00,46.9,44.7,30.21,WSW,245,4.0,4.0,92,0.00,,,0.43,Wunderground v.1.15,2013-01-14 15:55:00,
2013-01-14 11:00:00,46.7,44.2,30.21,WNW,296,4.0,4.0,91,0.00,,,0.43,Wunderground v.1.15,2013-01-14 16:00:00,
2013-01-14 11:10:00,46.6,44.1,30.21,WNW,282,4.0,4.0,91,0.00,,,0.43,Wunderground v.1.15,2013-01-14 16:10:00,
2013-01-14 11:15:00,46.6,44.1,30.20,WNW,282,2.0,4.0,91,0.00,,,0.43,Wunderground v.1.15,2013-01-14 16:15:00,
2013-01-14 11:20:00,46.7,44.5,30.20,WNW,289,0.0,0.0,92,0.00,,,0.43,Wunderground v.1.15,2013-01-14 16:20:00,
2013-01-14 11:25:00,46.7,44.5,30.20,West,275,0.0,1.0,92,0.00,,,0.43,Wunderground v.1.15,2013-01-14 16:25:00,
2013-01-14 11:30:00,46.7,44.5,30.20,NW,304,1.0,3.0,92,0.00,,,0.43,Wunderground v.1.15,2013-01-14 16:30:00,
2013-01-14 11:40:00,46.4,44.2,30.21,West,276,3.0,4.0,92,0.00,,,0.44,Wunderground v.1.15,2013-01-14 16:40:00,
2013-01-14 11:45:00,46.2,44.0,30.20,NW,313,3.0,4.0,92,0.00,,,0.44,Wunderground v.1.15,2013-01-14 16:45:00,
2013-01-14 11:55:00,46.2,44.0,30.19,NW,313,0.0,2.0,92,0.06,,,0.45,Wunderground v.1.15,2013-01-14 16:55:00,
2013-01-14 12:00:00,46.3,44.4,30.18,NW,313,0.0,0.0,93,0.05,,,0.46,Wunderground v.1.15,2013-01-14 17:00:00,
2013-01-14 12:05:00,46.3,44.4,30.17,NW,313,0.0,0.0,93,0.05,,,0.46,Wunderground v.1.15,2013-01-14 17:05:00,
2013-01-14 12:10:00,46.4,44.5,30.16,NW,313,0.0,0.0,93,0.05,,,0.46,Wunderground v.1.15,2013-01-14 17:10:00,
2013-01-14 12:20:00,46.2,44.3,30.15,South,175,0.0,0.0,93,0.00,,,0.47,Wunderground v.1.15,2013-01-14 17:20:00,
2013-01-14 12:25:00,46.4,44.5,30.15,South,175,1.0,1.0,93,0.00,,,0.47,Wunderground v.1.15,2013-01-14 17:25:00,
2013-01-14 12:30:00,46.5,44.6,30.16,South,175,0.0,0.0,93,0.00,,,0.47,Wunderground v.1.15,2013-01-14 17:30:00,
2013-01-14 12:40:00,46.8,45.2,30.15,South,175,0.0,0.0,94,0.00,,,0.47,Wunderground v.1.15,2013-01-14 17:40:00,
2013-01-14 12:45:00,46.9,45.3,30.15,South,175,0.0,0.0,94,0.00,,,0.47,Wunderground v.1.15,2013-01-14 17:45:00,
2013-01-14 12:55:00,47.3,45.7,30.14,South,175,0.0,0.0,94,0.00,,,0.47,Wunderground v.1.15,2013-01-14 17:55:00,
2013-01-14 13:00:00,47.5,45.9,30.15,WNW,296,0.0,2.0,94,0.00,,,0.47,Wunderground v.1.15,2013-01-14 18:00:00,
2013-01-14 13:05:00,47.3,45.4,30.14,NW,308,1.0,2.0,93,0.00,,,0.47,Wunderground v.1.15,2013-01-14 18:05:00,
2013-01-14 13:10:00,47.2,45.3,30.12,NW,308,1.0,1.0,93,0.00,,,0.47,Wunderground v.1.15,2013-01-14 18:10:00,
2013-01-14 13:15:00,47.3,45.4,30.11,NE,46,1.0,1.0,93,0.00,,,0.47,Wunderground v.1.15,2013-01-14 18:15:00,
2013-01-14 13:25:00,47.2,45.3,30.12,ESE,120,1.0,1.0,93,0.00,,,0.47,Wunderground v.1.15,2013-01-14 18:25:00,
2013-01-14 13:30:00,47.2,45.3,30.12,ESE,120,0.0,0.0,93,0.00,,,0.47,Wunderground v.1.15,2013-01-14 18:30:00,
2013-01-14 13:35:00,47.2,45.3,30.12,ESE,120,0.0,0.0,93,0.00,,,0.47,Wunderground v.1.15,2013-01-14 18:35:00,
2013-01-14 13:40:00,47.4,45.5,30.13,ESE,120,0.0,0.0,93,0.00,,,0.47,Wunderground v.1.15,2013-01-14 18:40:00,
2013-01-14 13:45:00,47.6,45.7,30.12,ESE,120,0.0,1.0,93,0.00,,,0.47,Wunderground v.1.15,2013-01-14 18:45:00,
2013-01-14 13:55:00,47.9,46.3,30.13,ESE,120,0.0,1.0,94,0.00,,,0.48,Wunderground v.1.15,2013-01-14 18:55:00,
2013-01-14 14:00:00,47.9,46.3,30.13,ESE,120,0.0,0.0,94,0.00,,,0.48,Wunderground v.1.15,2013-01-14 19:00:00,
2013-01-14 14:10:00,47.8,46.2,30.12,ESE,120,0.0,0.0,94,0.00,,,0.48,Wunderground v.1.15,2013-01-14 19:10:00,
2013-01-14 14:20:00,47.6,46.0,30.13,WNW,295,1.0,1.0,94,0.00,,,0.48,Wunderground v.1.15,2013-01-14 19:20:00,
2013-01-14 14:25:00,47.6,45.7,30.12,West,276,1.0,1.0,93,0.00,,,0.48,Wunderground v.1.15,2013-01-14 19:25:00,
2013-01-14 14:30:00,47.7,45.8,30.11,West,276,0.0,0.0,93,0.00,,,0.48,Wunderground v.1.15,2013-01-14 19:30:00,
2013-01-14 14:40:00,47.9,46.0,30.14,WNW,294,1.0,3.0,93,0.00,,,0.48,Wunderground v.1.15,2013-01-14 19:40:00,
2013-01-14 14:45:00,48.0,46.1,30.14,NW,311,2.0,3.0,93,0.00,,,0.48,Wunderground v.1.15,2013-01-14 19:45:00,
2013-01-14 14:55:00,47.9,45.7,30.13,WNW,286,1.0,3.0,92,0.00,,,0.48,Wunderground v.1.15,2013-01-14 19:55:00,
2013-01-14 15:00:00,47.9,46.0,30.13,WNW,286,0.0,0.0,93,0.00,,,0.48,Wunderground v.1.15,2013-01-14 20:00:00,
2013-01-14 15:10:00,48.1,46.2,30.14,WNW,288,0.0,1.0,93,0.00,,,0.48,Wunderground v.1.15,2013-01-14 20:10:00,
2013-01-14 15:15:00,48.0,46.1,30.14,WNW,292,1.0,1.0,93,0.00,,,0.48,Wunderground v.1.15,2013-01-14 20:15:00,
2013-01-14 15:25:00,47.9,46.0,30.14,WNW,292,0.0,1.0,93,0.00,,,0.48,Wunderground v.1.15,2013-01-14 20:25:00,
2013-01-14 15:35:00,47.9,46.0,30.15,WNW,292,1.0,1.0,93,0.00,,,0.48,Wunderground v.1.15,2013-01-14 20:35:00,
2013-01-14 15:40:00,47.8,45.9,30.15,WNW,292,1.0,1.0,93,0.00,,,0.49,Wunderground v.1.15,2013-01-14 20:40:00,
2013-01-14 15:45:00,47.7,45.8,30.16,WNW,292,0.0,1.0,93,0.00,,,0.49,Wunderground v.1.15,2013-01-14 20:45:00,
2013-01-14 15:55:00,47.6,45.7,30.16,WNW,292,0.0,0.0,93,0.06,,,0.50,Wunderground v.1.15,2013-01-14 20:55:00,
2013-01-14 16:00:00,47.6,45.7,30.15,WNW,292,0.0,0.0,93,0.08,,,0.51,Wunderground v.1.15,2013-01-14 21:00:00,
2013-01-14 16:10:00,47.4,45.8,30.15,West,261,1.0,1.0,94,0.11,,,0.53,Wunderground v.1.15,2013-01-14 21:10:00,
2013-01-14 16:15:00,47.4,45.8,30.15,West,261,0.0,1.0,94,0.08,,,0.53,Wunderground v.1.15,2013-01-14 21:15:00,
2013-01-14 16:20:00,47.4,45.8,30.15,West,261,0.0,0.0,94,0.05,,,0.53,Wunderground v.1.15,2013-01-14 21:20:00,
2013-01-14 16:25:00,47.4,45.8,30.15,West,261,0.0,0.0,94,0.04,,,0.54,Wunderground v.1.15,2013-01-14 21:25:00,
2013-01-14 16:35:00,47.4,45.8,30.14,West,261,0.0,1.0,94,0.04,,,0.54,Wunderground v.1.15,2013-01-14 21:35:00,
2013-01-14 16:40:00,47.4,45.8,30.15,West,261,0.0,0.0,94,0.00,,,0.54,Wunderground v.1.15,2013-01-14 21:40:00,
2013-01-14 16:45:00,47.4,45.8,30.15,West,261,0.0,0.0,94,0.00,,,0.54,Wunderground v.1.15,2013-01-14 21:45:00,
2013-01-14 16:55:00,47.4,45.8,30.16,West,277,1.0,2.0,94,0.00,,,0.55,Wunderground v.1.15,2013-01-14 21:55:00,
2013-01-14 17:00:00,47.5,46.1,30.16,West,281,2.0,2.0,95,0.00,,,0.55,Wunderground v.1.15,2013-01-14 22:00:00,
2013-01-14 17:05:00,47.5,46.1,30.17,West,281,0.0,2.0,95,0.00,,,0.55,Wunderground v.1.15,2013-01-14 22:05:00,
2013-01-14 17:10:00,47.5,46.1,30.17,West,281,0.0,0.0,95,0.00,,,0.55,Wunderground v.1.15,2013-01-14 22:10:00,
2013-01-14 17:15:00,47.6,46.2,30.17,NW,317,1.0,2.0,95,0.00,,,0.56,Wunderground v.1.15,2013-01-14 22:15:00,
2013-01-14 17:25:00,47.3,45.9,30.18,NW,313,2.0,2.0,95,0.20,,,0.58,Wunderground v.1.15,2013-01-14 22:25:00,
2013-01-14 17:30:00,47.2,45.6,30.18,WNW,290,3.0,3.0,94,0.15,,,0.60,Wunderground v.1.15,2013-01-14 22:30:00,
2013-01-14 17:40:00,47.0,45.4,30.18,NW,313,3.0,5.0,94,0.11,,,0.62,Wunderground v.1.15,2013-01-14 22:40:00,
2013-01-14 17:45:00,46.8,45.2,30.19,WNW,284,4.0,6.0,94,0.10,,,0.62,Wunderground v.1.15,2013-01-14 22:45:00,
2013-01-14 17:50:00,46.6,44.7,30.19,WNW,291,5.0,5.0,93,0.13,,,0.63,Wunderground v.1.15,2013-01-14 22:50:00,
2013-01-14 17:55:00,46.5,44.6,30.19,West,270,5.0,5.0,93,0.12,,,0.64,Wunderground v.1.15,2013-01-14 22:55:00,
2013-01-14 18:00:00,46.4,44.5,30.19,WNW,296,5.0,5.0,93,0.11,,,0.65,Wunderground v.1.15,2013-01-14 23:00:00,
2013-01-14 18:10:00,45.9,43.7,30.20,West,274,5.0,5.0,92,0.13,,,0.67,Wunderground v.1.15,2013-01-14 23:10:00,
2013-01-14 18:15:00,45.8,43.6,30.20,WNW,288,4.0,5.0,92,0.08,,,0.68,Wunderground v.1.15,2013-01-14 23:15:00,
2013-01-14 18:25:00,45.4,43.2,30.21,WNW,303,1.0,2.0,92,0.13,,,0.70,Wunderground v.1.15,2013-01-14 23:25:00,
2013-01-14 18:30:00,45.2,43.0,30.21,NW,305,1.0,1.0,92,0.16,,,0.71,Wunderground v.1.15,2013-01-14 23:30:00,
2013-01-14 18:35:00,45.0,43.1,30.21,WNW,286,2.0,3.0,93,0.29,,,0.73,Wunderground v.1.15,2013-01-14 23:35:00,
2013-01-14 18:40:00,44.6,42.7,30.21,WNW,298,3.0,3.0,93,0.19,,,0.75,Wunderground v.1.15,2013-01-14 23:40:00,
2013-01-14 18:45:00,44.4,42.5,30.22,WSW,254,3.0,3.0,93,0.12,,,0.76,Wunderground v.1.15,2013-01-14 23:45:00,
2013-01-14 18:55:00,43.9,42.0,30.22,WNW,284,3.0,6.0,93,0.09,,,0.77,Wunderground v.1.15,2013-01-14 23:55:00,
2013-01-14 19:00:00,43.8,41.9,30.22,West,263,2.0,2.0,93,0.07,,,0.77,Wunderground v.1.15,2013-01-15 00:00:00,
2013-01-14 19:10:00,43.6,41.7,30.22,NW,313,0.0,3.0,93,0.06,,,0.78,Wunderground v.1.15,2013-01-15 00:10:00,
2013-01-14 19:15:00,43.4,41.5,30.23,NW,312,1.0,3.0,93,0.04,,,0.78,Wunderground v.1.15,2013-01-15 00:15:00,
2013-01-14 19:20:00,43.2,41.0,30.23,WNW,296,2.0,2.0,92,0.00,,,0.78,Wunderground v.1.15,2013-01-15 00:20:00,
2013-01-14 19:25:00,42.9,40.7,30.24,West,261,3.0,3.0,92,0.00,,,0.78,Wunderground v.1.15,2013-01-15 00:25:00,
2013-01-14 19:35:00,42.5,40.3,30.26,West,265,1.0,3.0,92,0.00,,,0.78,Wunderground v.1.15,2013-01-15 00:35:00,
2013-01-14 19:40:00,42.3,40.1,30.26,West,264,1.0,1.0,92,0.00,,,0.79,Wunderground v.1.15,2013-01-15 00:40:00,
2013-01-14 19:50:00,41.9,39.7,30.27,West,269,2.0,6.0,92,0.00,,,0.79,Wunderground v.1.15,2013-01-15 00:50:00,
2013-01-14 19:55:00,41.5,38.8,30.28,WNW,292,4.0,6.0,90,0.00,,,0.79,Wunderground v.1.15,2013-01-15 00:55:00,
2013-01-14 20:00:00,41.3,38.6,30.28,WNW,300,6.0,6.0,90,0.00,,,0.80,Wunderground v.1.15,2013-01-15 01:00:00,
2013-01-14 20:05:00,40.9,38.2,30.28,WNW,284,5.0,7.0,90,0.09,,,0.80,Wunderground v.1.15,2013-01-15 01:05:00,
2013-01-14 20:10:00,40.7,38.3,30.28,West,271,4.0,4.0,91,0.09,,,0.81,Wunderground v.1.15,2013-01-15 01:10:00,
2013-01-14 20:15:00,40.5,38.1,30.28,West,279,3.0,4.0,91,0.07,,,0.82,Wunderground v.1.15,2013-01-15 01:15:00,
2013-01-14 20:25:00,40.4,38.0,30.28,WNW,289,2.0,3.0,91,0.08,,,0.83,Wunderground v.1.15,2013-01-15 01:25:00,
2013-01-14 20:30:00,40.4,38.3,30.29,NW,318,1.0,1.0,92,0.06,,,0.83,Wunderground v.1.15,2013-01-15 01:30:00,
2013-01-14 20:40:00,40.3,37.9,30.28,NNW,339,2.0,2.0,91,0.26,,,0.86,Wunderground v.1.15,2013-01-15 01:40:00,
2013-01-14 20:45:00,40.2,37.8,30.28,West,275,2.0,2.0,91,0.19,,,0.87,Wunderground v.1.15,2013-01-15 01:45:00,
2013-01-14 20:50:00,40.2,37.8,30.28,SSW,207,2.0,2.0,91,0.13,,,0.88,Wunderground v.1.15,2013-01-15 01:50:00,
2013-01-14 20:55:00,40.2,38.1,30.27,SSW,207,1.0,2.0,92,0.13,,,0.89,Wunderground v.1.15,2013-01-15 01:55:00,
2013-01-14 21:05:00,40.0,37.9,30.28,West,266,1.0,3.0,92,0.13,,,0.91,Wunderground v.1.15,2013-01-15 02:05:00,
2013-01-14 21:10:00,39.7,37.6,30.28,West,278,2.0,3.0,92,0.09,,,0.92,Wunderground v.1.15,2013-01-15 02:10:00,
2013-01-14 21:15:00,39.4,37.3,30.30,NW,306,3.0,3.0,92,0.10,,,0.92,Wunderground v.1.15,2013-01-15 02:15:00,
2013-01-14 21:25:00,39.1,37.0,30.30,WNW,290,4.0,4.0,92,0.15,,,0.95,Wunderground v.1.15,2013-01-15 02:25:00,
2013-01-14 21:30:00,39.0,36.9,30.32,NW,305,3.0,3.0,92,0.14,,,0.96,Wunderground v.1.15,2013-01-15 02:30:00,
2013-01-14 21:40:00,38.7,36.6,30.30,WNW,302,2.0,2.0,92,0.10,,,0.98,Wunderground v.1.15,2013-01-15 02:40:00,
2013-01-14 21:45:00,38.6,36.8,30.30,WNW,302,1.0,2.0,93,0.09,,,0.98,Wunderground v.1.15,2013-01-15 02:45:00,
2013-01-14 21:50:00,38.6,36.8,30.30,WSW,258,1.0,2.0,93,0.08,,,0.99,Wunderground v.1.15,2013-01-15 02:50:00,
2013-01-14 21:55:00,38.5,36.7,30.29,WSW,258,1.0,2.0,93,0.08,,,1.00,Wunderground v.1.15,2013-01-15 02:55:00,
2013-01-14 22:00:00,38.5,36.7,30.29,WSW,258,1.0,1.0,93,0.08,,,1.00,Wunderground v.1.15,2013-01-15 03:00:00,
2013-01-14 22:10:00,38.6,36.8,30.28,West,259,0.0,0.0,93,0.07,,,1.02,Wunderground v.1.15,2013-01-15 03:10:00,
2013-01-14 22:20:00,38.6,37.0,30.28,SW,233,1.0,1.0,94,0.06,,,1.03,Wunderground v.1.15,2013-01-15 03:20:00,
2013-01-14 22:25:00,38.7,37.1,30.28,SW,233,0.0,1.0,94,0.06,,,1.03,Wunderground v.1.15,2013-01-15 03:25:00,
2013-01-14 22:30:00,38.7,37.1,30.27,SW,233,0.0,0.0,94,0.07,,,1.04,Wunderground v.1.15,2013-01-15 03:30:00,
2013-01-14 22:40:00,38.7,37.1,30.26,SW,233,0.0,1.0,94,0.12,,,1.06,Wunderground v.1.15,2013-01-15 03:40:00,
2013-01-14 22:45:00,38.7,37.1,30.26,SW,233,0.0,1.0,94,0.10,,,1.07,Wunderground v.1.15,2013-01-15 03:45:00,
2013-01-14 22:50:00,38.6,37.0,30.26,SW,233,0.0,0.0,94,0.07,,,1.07,Wunderground v.1.15,2013-01-15 03:50:00,
2013-01-14 22:55:00,38.7,37.1,30.27,SW,233,1.0,1.0,94,0.05,,,1.08,Wunderground v.1.15,2013-01-15 03:55:00,
2013-01-14 23:00:00,38.8,37.2,30.27,SW,233,0.0,0.0,94,0.05,,,1.08,Wunderground v.1.15,2013-01-15 04:00:00,
2013-01-14 23:10:00,38.9,37.3,30.27,SW,233,0.0,0.0,94,0.04,,,1.08,Wunderground v.1.15,2013-01-15 04:10:00,
2013-01-14 23:15:00,38.9,37.3,30.26,WNW,290,0.0,0.0,94,0.00,,,1.09,Wunderground v.1.15,2013-01-15 04:15:00,
2013-01-14 23:20:00,38.9,37.3,30.26,WNW,290,0.0,0.0,94,0.00,,,1.09,Wunderground v.1.15,2013-01-15 04:20:00,
2013-01-14 23:25:00,38.8,37.2,30.26,WNW,290,0.0,0.0,94,0.00,,,1.09,Wunderground v.1.15,2013-01-15 04:25:00,
2013-01-14 23:30:00,38.8,37.2,30.26,WNW,290,0.0,0.0,94,0.00,,,1.09,Wunderground v.1.15,2013-01-15 04:30:00,
2013-01-14 23:40:00,38.8,37.2,30.25,WNW,290,0.0,0.0,94,0.00,,,1.10,Wunderground v.1.15,2013-01-15 04:40:00,
2013-01-14 23:45:00,38.8,37.2,30.25,WNW,290,0.0,0.0,94,0.00,,,1.10,Wunderground v.1.15,2013-01-15 04:45:00,
2013-01-14 23:55:00,38.8,37.2,30.24,WNW,290,0.0,1.0,94,0.05,,,1.11,Wunderground v.1.15,2013-01-15 04:55:00,